Terminal Aerodrome Forecast
Issued by NWS Sterling, VA

Current Version | Previous Version | Text Only | Print | Product List | Glossary Off
Versions: 1 2 3 4 5 6 7 8 9 10 11 12 13 14 15 16 17 18 19 20 21

631
FTUS41 KLWX 091503 AAA
TAFIAD
TAF AMD
KIAD 091503Z 0915/1018 30015G25KT P6SM SCT060
     FM092300 29011G18KT P6SM FEW060
     FM100400 29008KT P6SM FEW200=

USA.gov is the U.S. government's official web portal to all federal, state and local government web resources and services.